Terminal Aerodrome Forecast
Issued by NWS

Home | Current Version | Previous Version | Graphics & Text | Print | Product List | Glossary On
Versions: 1 2 3 4 5 6 7 8 9 10 11 12 13 14 15 16 17 18 19
076
FTUS43 KABR 030535
TAFMBG
TAF
KMBG 030535Z 0306/0406 36010KT P6SM FEW017 BKN027 OVC030
     FM031000 VRB06KT P6SM FEW020 SCT150
     FM031800 27009KT P6SM BKN060 OVC100
     FM032100 32006KT 4SM -SN BKN025 OVC040
     FM040200 VRB06KT P6SM OVC030=

USA.gov is the U.S. government's official web portal to all federal, state and local government web resources and services.